createdAt,value
2022-11-27T00:01:20.714Z,4.90
2022-11-27T00:03:49.501Z,4.90
2022-11-27T00:06:19.309Z,4.90
2022-11-27T00:08:47.949Z,4.90
2022-11-27T00:11:19.273Z,5.00
2022-11-27T00:13:47.543Z,4.90
2022-11-27T00:16:16.650Z,5.00
2022-11-27T00:18:45.387Z,4.90
2022-11-27T00:21:16.293Z,4.90
2022-11-27T00:23:44.721Z,5.00
2022-11-27T00:26:15.411Z,5.00
2022-11-27T00:28:45.030Z,5.00
2022-11-27T00:31:16.323Z,5.00
2022-11-27T00:33:44.570Z,5.00
2022-11-27T00:36:14.116Z,5.00
2022-11-27T00:38:42.638Z,5.00
2022-11-27T00:41:12.452Z,5.00
2022-11-27T00:43:44.364Z,5.00
2022-11-27T00:46:15.206Z,5.00
2022-11-27T00:48:43.532Z,5.00
2022-11-27T00:51:19.661Z,5.10
2022-11-27T00:53:48.611Z,5.10
2022-11-27T00:56:18.971Z,5.10
2022-11-27T00:58:47.484Z,5.10
2022-11-27T01:01:19.834Z,5.10
2022-11-27T01:03:48.683Z,5.10
2022-11-27T01:06:18.531Z,5.10
2022-11-27T01:08:47.324Z,5.10
2022-11-27T01:11:17.316Z,5.20
2022-11-27T01:13:46.003Z,5.20
2022-11-27T01:16:16.048Z,5.20
2022-11-27T01:18:46.998Z,5.20
2022-11-27T01:21:17.535Z,5.20
2022-11-27T01:23:45.761Z,5.20
2022-11-27T01:26:14.696Z,5.20
2022-11-27T01:28:43.070Z,5.20
2022-11-27T01:31:17.596Z,5.30
2022-11-27T01:33:48.260Z,5.20
2022-11-27T01:36:17.172Z,5.20
2022-11-27T01:38:45.384Z,5.20
2022-11-27T01:41:17.069Z,5.20
2022-11-27T01:43:47.731Z,5.20
2022-11-27T01:46:30.250Z,5.20
2022-11-27T01:49:05.976Z,5.20
2022-11-27T01:51:34.351Z,5.30
2022-11-27T01:54:02.408Z,5.30
2022-11-27T01:56:31.207Z,5.30
2022-11-27T01:59:01.017Z,5.30
2022-11-27T02:01:29.198Z,5.30
2022-11-27T02:04:02.405Z,5.30
2022-11-27T02:06:30.677Z,5.30
2022-11-27T02:08:58.930Z,5.40
2022-11-27T02:11:37.043Z,5.40
2022-11-27T02:14:10.873Z,5.40
2022-11-27T02:16:48.148Z,5.40
2022-11-27T02:19:27.985Z,5.40
2022-11-27T02:22:02.144Z,5.40
2022-11-27T02:24:47.995Z,5.40
2022-11-27T02:27:33.817Z,5.40
2022-11-27T02:30:06.393Z,5.40
2022-11-27T02:32:40.685Z,5.40
2022-11-27T02:35:13.985Z,5.50
2022-11-27T02:37:47.742Z,5.50
2022-11-27T02:40:21.267Z,5.50
2022-11-27T02:42:54.152Z,5.50
2022-11-27T02:45:29.624Z,5.50
2022-11-27T02:47:58.967Z,5.50
2022-11-27T02:50:30.160Z,5.50
2022-11-27T02:53:02.978Z,5.50
2022-11-27T02:55:34.705Z,5.50
2022-11-27T02:58:05.797Z,5.50
2022-11-27T03:00:36.571Z,5.50
2022-11-27T03:03:07.724Z,5.50
2022-11-27T03:05:40.335Z,5.50
2022-11-27T03:08:12.416Z,5.50
2022-11-27T03:10:49.150Z,5.50
2022-11-27T03:13:17.673Z,5.50
2022-11-27T03:15:56.367Z,5.50
2022-11-27T03:18:32.455Z,5.50
2022-11-27T03:21:08.994Z,5.50
2022-11-27T03:23:37.232Z,5.50
2022-11-27T03:26:05.427Z,5.50
2022-11-27T03:28:34.818Z,5.50
2022-11-27T03:31:04.430Z,5.50
2022-11-27T03:33:32.597Z,5.50
2022-11-27T03:36:00.630Z,5.40
2022-11-27T03:38:29.201Z,5.40
2022-11-27T03:41:05.402Z,5.40
2022-11-27T03:43:40.519Z,5.40
2022-11-27T03:46:16.306Z,5.40
2022-11-27T03:48:49.747Z,5.40
2022-11-27T03:51:23.169Z,5.40
2022-11-27T03:54:00.233Z,5.40
2022-11-27T03:56:36.354Z,5.30
2022-11-27T03:59:10.403Z,5.30
2022-11-27T04:01:41.005Z,5.30
2022-11-27T04:04:09.479Z,5.30
2022-11-27T04:06:37.606Z,5.30
2022-11-27T04:09:06.063Z,5.30
2022-11-27T04:11:34.178Z,5.30
2022-11-27T04:14:02.208Z,5.30
2022-11-27T04:16:31.060Z,5.30
2022-11-27T04:19:00.658Z,5.30
2022-11-27T04:21:28.695Z,5.30
2022-11-27T04:23:56.919Z,5.30
2022-11-27T04:26:24.950Z,5.20
2022-11-27T04:28:53.026Z,5.20
2022-11-27T04:31:21.216Z,5.20
2022-11-27T04:33:49.335Z,5.20
2022-11-27T04:36:18.704Z,5.10
2022-11-27T04:38:46.819Z,5.10
2022-11-27T04:41:14.964Z,5.10
2022-11-27T04:43:43.053Z,5.10
2022-11-27T04:46:11.586Z,5.10
2022-11-27T04:48:39.823Z,5.10
2022-11-27T04:51:07.862Z,5.10
2022-11-27T04:53:37.614Z,5.10
2022-11-27T04:56:06.144Z,5.10
2022-11-27T04:58:34.190Z,5.00
2022-11-27T05:01:02.665Z,5.00
2022-11-27T05:03:30.864Z,5.00
2022-11-27T05:05:59.647Z,5.00
2022-11-27T05:08:30.021Z,5.00
2022-11-27T05:11:04.807Z,4.90
2022-11-27T05:13:33.081Z,4.90
2022-11-27T05:16:01.768Z,4.90
2022-11-27T05:18:29.971Z,4.90
2022-11-27T05:20:59.216Z,4.80
2022-11-27T05:23:27.557Z,4.80
2022-11-27T05:25:55.822Z,4.80
2022-11-27T05:28:27.058Z,4.80
2022-11-27T05:30:55.758Z,4.80
2022-11-27T05:33:23.812Z,4.80
2022-11-27T05:35:51.951Z,4.80
2022-11-27T05:38:20.025Z,4.80
2022-11-27T05:40:48.108Z,4.90
2022-11-27T05:43:17.965Z,4.90
2022-11-27T05:45:47.447Z,4.80
2022-11-27T05:48:15.487Z,4.80
2022-11-27T05:50:43.579Z,4.80
2022-11-27T05:53:11.771Z,4.80
2022-11-27T05:55:39.801Z,4.80
2022-11-27T05:58:07.980Z,4.80
2022-11-27T06:00:36.075Z,4.80
2022-11-27T06:03:05.662Z,4.80
2022-11-27T06:05:34.185Z,4.80
2022-11-27T06:08:02.241Z,4.80
2022-11-27T06:10:30.323Z,4.80
2022-11-27T06:12:58.462Z,4.80
2022-11-27T06:15:26.759Z,4.80
2022-11-27T06:17:54.794Z,4.80
2022-11-27T06:20:24.725Z,4.80
2022-11-27T06:22:52.826Z,4.80
2022-11-27T06:25:20.877Z,4.80
2022-11-27T06:27:49.445Z,4.80
2022-11-27T06:30:18.054Z,4.80
2022-11-27T06:32:46.365Z,4.80
2022-11-27T06:35:14.585Z,4.80
2022-11-27T06:37:43.970Z,4.90
2022-11-27T06:40:12.848Z,4.80
2022-11-27T06:42:40.900Z,4.80
2022-11-27T06:45:10.273Z,4.80
2022-11-27T06:47:38.286Z,4.80
2022-11-27T06:50:08.002Z,4.80
2022-11-27T06:52:40.327Z,4.80
2022-11-27T06:55:10.738Z,4.80
2022-11-27T06:57:38.798Z,4.80
2022-11-27T07:00:08.178Z,4.80
2022-11-27T07:02:36.359Z,4.80
2022-11-27T07:05:04.863Z,4.80
2022-11-27T07:07:32.940Z,4.80
2022-11-27T07:10:01.112Z,4.80
2022-11-27T07:12:30.734Z,4.80
2022-11-27T07:15:02.879Z,4.80
2022-11-27T07:17:32.268Z,4.80
2022-11-27T07:20:00.327Z,4.80
2022-11-27T07:22:28.398Z,4.80
2022-11-27T07:24:56.488Z,4.80
2022-11-27T07:27:24.574Z,4.80
2022-11-27T07:29:54.085Z,4.80
2022-11-27T07:32:22.126Z,4.80
2022-11-27T07:34:50.163Z,4.80
2022-11-27T07:37:18.288Z,4.80
2022-11-27T07:40:02.128Z,4.80
2022-11-27T07:42:38.110Z,4.80
2022-11-27T07:45:09.536Z,4.80
2022-11-27T07:47:38.041Z,4.80
2022-11-27T07:50:08.344Z,4.80
2022-11-27T07:52:41.393Z,4.80
2022-11-27T07:55:10.556Z,4.80
2022-11-27T07:57:38.680Z,4.80
2022-11-27T08:00:09.681Z,4.90
2022-11-27T08:02:37.785Z,4.90
2022-11-27T08:05:12.399Z,4.80
2022-11-27T08:07:41.200Z,4.80
2022-11-27T08:10:09.905Z,4.90
2022-11-27T08:12:37.970Z,4.90
2022-11-27T08:15:08.861Z,4.90
2022-11-27T08:17:37.075Z,4.90
2022-11-27T08:20:06.590Z,4.90
2022-11-27T08:22:35.033Z,4.90
2022-11-27T08:25:04.167Z,5.00
2022-11-27T08:27:33.390Z,5.00
2022-11-27T08:30:01.896Z,5.00
2022-11-27T08:32:32.743Z,5.00
2022-11-27T08:35:02.551Z,5.00
2022-11-27T08:37:30.675Z,5.10
2022-11-27T08:39:58.816Z,5.00
2022-11-27T08:42:26.945Z,5.00
2022-11-27T08:44:55.084Z,5.10
2022-11-27T08:47:23.297Z,5.10
2022-11-27T08:49:52.744Z,5.10
2022-11-27T08:52:21.805Z,5.00
2022-11-27T08:54:53.236Z,5.10
2022-11-27T08:57:25.354Z,5.10
2022-11-27T08:59:53.457Z,5.10
2022-11-27T09:02:21.638Z,5.10
2022-11-27T09:04:49.612Z,5.10
2022-11-27T09:07:19.369Z,5.10
2022-11-27T09:09:47.699Z,5.20
2022-11-27T09:12:15.694Z,5.20
2022-11-27T09:14:43.874Z,5.20
2022-11-27T09:17:12.010Z,5.30
2022-11-27T09:19:40.031Z,5.30
2022-11-27T09:22:10.214Z,5.30
2022-11-27T09:24:41.561Z,5.30
2022-11-27T09:27:09.882Z,5.30
2022-11-27T09:29:38.030Z,5.30
2022-11-27T09:32:06.607Z,5.30
2022-11-27T09:34:37.497Z,5.30
2022-11-27T09:37:06.233Z,5.30
2022-11-27T09:39:34.263Z,5.30
2022-11-27T09:42:06.402Z,5.40
2022-11-27T09:44:40.106Z,5.40
2022-11-27T09:47:16.359Z,5.40
2022-11-27T09:49:49.212Z,5.40
2022-11-27T09:52:23.752Z,5.40
2022-11-27T09:54:57.806Z,5.40
2022-11-27T09:57:32.815Z,5.40
2022-11-27T10:00:04.169Z,5.50
2022-11-27T10:02:37.288Z,5.50
2022-11-27T10:05:14.134Z,5.50
2022-11-27T10:08:04.652Z,5.50
2022-11-27T10:10:40.926Z,5.50
2022-11-27T10:13:20.271Z,5.60
2022-11-27T10:15:55.599Z,5.60
2022-11-27T10:18:33.363Z,5.60
2022-11-27T10:21:08.599Z,5.60
2022-11-27T10:23:46.859Z,5.60
2022-11-27T10:26:20.175Z,5.70
2022-11-27T10:28:59.829Z,5.70
2022-11-27T10:31:36.473Z,5.70
2022-11-27T10:34:08.009Z,5.70
2022-11-27T10:36:40.919Z,5.70
2022-11-27T10:39:17.347Z,5.70
2022-11-27T10:41:52.992Z,5.70
2022-11-27T10:44:30.389Z,5.70
2022-11-27T10:47:04.059Z,5.80
2022-11-27T10:49:33.784Z,5.80
2022-11-27T10:52:01.928Z,5.80
2022-11-27T10:54:34.952Z,5.80
2022-11-27T10:57:19.222Z,5.80
2022-11-27T11:00:02.770Z,5.90
2022-11-27T11:02:33.647Z,5.80
2022-11-27T11:05:34.670Z,5.80
2022-11-27T11:08:04.828Z,5.90
2022-11-27T11:10:36.314Z,5.90
2022-11-27T11:13:16.698Z,5.90
2022-11-27T11:15:53.027Z,5.90
2022-11-27T11:18:23.184Z,5.90
2022-11-27T11:20:54.611Z,5.90
2022-11-27T11:23:27.131Z,5.90
2022-11-27T11:25:59.365Z,5.90
2022-11-27T11:28:28.232Z,5.90
2022-11-27T11:31:04.194Z,5.80
2022-11-27T11:33:38.497Z,5.90
2022-11-27T11:36:12.237Z,5.90
2022-11-27T11:38:45.885Z,5.90
2022-11-27T11:41:17.869Z,5.90
2022-11-27T11:43:59.146Z,6.00
2022-11-27T11:46:32.033Z,6.00
2022-11-27T11:49:03.774Z,6.00
2022-11-27T11:51:55.812Z,6.10
2022-11-27T11:54:59.024Z,6.10
2022-11-27T11:57:48.559Z,6.10
2022-11-27T12:00:18.799Z,6.10
2022-11-27T12:03:20.122Z,6.10
2022-11-27T12:06:12.559Z,6.10
2022-11-27T12:08:58.589Z,6.10
2022-11-27T12:11:38.187Z,6.10
2022-11-27T12:14:20.562Z,6.10
2022-11-27T12:17:04.395Z,6.20
2022-11-27T12:19:55.044Z,6.20
2022-11-27T12:22:40.328Z,6.20
2022-11-27T12:25:25.612Z,6.10
2022-11-27T12:28:08.266Z,6.20
2022-11-27T12:30:46.914Z,6.20
2022-11-27T12:33:26.960Z,6.20
2022-11-27T12:36:05.730Z,6.20
2022-11-27T12:38:45.656Z,6.30
2022-11-27T12:41:26.294Z,6.30
2022-11-27T12:44:00.217Z,6.30
2022-11-27T12:46:37.917Z,6.30
2022-11-27T12:49:15.096Z,6.30
2022-11-27T12:51:50.000Z,6.30
2022-11-27T12:54:23.598Z,6.30
2022-11-27T12:56:57.943Z,6.30
2022-11-27T12:59:33.146Z,6.30
2022-11-27T13:02:06.746Z,6.30
2022-11-27T13:04:43.322Z,6.20
2022-11-27T13:07:18.476Z,6.20
2022-11-27T13:09:52.488Z,6.20
2022-11-27T13:12:28.158Z,6.20
2022-11-27T13:15:01.773Z,6.20
2022-11-27T13:17:36.415Z,6.10
2022-11-27T13:20:07.048Z,6.10
2022-11-27T13:22:38.096Z,6.10
2022-11-27T13:25:07.048Z,6.10
2022-11-27T13:27:37.771Z,6.10
2022-11-27T13:30:08.816Z,6.10
2022-11-27T13:32:41.267Z,6.00
2022-11-27T13:35:21.537Z,5.90
2022-11-27T13:37:56.609Z,5.90
2022-11-27T13:40:28.559Z,5.80
2022-11-27T13:43:00.340Z,5.80
2022-11-27T13:45:34.343Z,5.70
2022-11-27T13:48:06.656Z,5.70
2022-11-27T13:50:44.799Z,5.70
2022-11-27T13:53:14.301Z,5.60
2022-11-27T13:55:56.740Z,5.60
2022-11-27T13:58:30.949Z,5.60
2022-11-27T14:00:59.602Z,5.60
2022-11-27T14:03:29.142Z,5.50
2022-11-27T14:05:58.401Z,5.50
2022-11-27T14:08:31.494Z,5.50
2022-11-27T14:11:02.882Z,5.40
2022-11-27T14:13:39.138Z,5.40
2022-11-27T14:16:23.156Z,5.40
2022-11-27T14:18:53.434Z,5.40
2022-11-27T14:21:31.027Z,5.50
2022-11-27T14:24:05.853Z,5.50
2022-11-27T14:26:34.049Z,5.40
2022-11-27T14:29:02.104Z,5.50
2022-11-27T14:31:33.151Z,5.50
2022-11-27T14:34:27.743Z,5.40
2022-11-27T14:36:56.274Z,5.40
2022-11-27T14:39:28.911Z,5.40
2022-11-27T14:42:01.329Z,5.40
2022-11-27T14:44:30.038Z,5.40
2022-11-27T14:47:02.280Z,5.40
2022-11-27T14:49:32.514Z,5.40
2022-11-27T14:52:04.965Z,5.40
2022-11-27T14:54:38.278Z,5.40
2022-11-27T14:57:07.348Z,5.30
2022-11-27T14:59:35.460Z,5.30
2022-11-27T15:02:16.498Z,5.30
2022-11-27T15:04:46.584Z,5.40
2022-11-27T15:07:17.970Z,5.30
2022-11-27T15:09:50.378Z,5.30
2022-11-27T15:12:22.530Z,5.30
2022-11-27T15:14:58.211Z,5.30
2022-11-27T15:17:29.208Z,5.30
2022-11-27T15:19:58.513Z,5.30
2022-11-27T15:22:26.843Z,5.30
2022-11-27T15:25:05.082Z,5.30
2022-11-27T15:27:44.978Z,5.30
2022-11-27T15:30:18.269Z,5.30
2022-11-27T15:32:52.204Z,5.30
2022-11-27T15:35:28.419Z,5.30
2022-11-27T15:38:03.592Z,5.30
2022-11-27T15:40:36.580Z,5.30
2022-11-27T15:43:07.602Z,5.30
2022-11-27T15:45:35.751Z,5.30
2022-11-27T15:48:04.030Z,5.30
2022-11-27T15:50:32.644Z,5.20
2022-11-27T15:53:02.106Z,5.20
2022-11-27T15:55:30.840Z,5.20
2022-11-27T15:58:00.615Z,5.20
2022-11-27T16:00:29.476Z,5.20
2022-11-27T16:02:57.780Z,5.20
2022-11-27T16:05:25.870Z,5.20
2022-11-27T16:07:55.615Z,5.20
2022-11-27T16:10:24.028Z,5.10
2022-11-27T16:12:54.964Z,5.10
2022-11-27T16:15:28.752Z,5.10
2022-11-27T16:17:59.885Z,5.00
2022-11-27T16:20:28.584Z,5.00
2022-11-27T16:22:56.674Z,5.00
2022-11-27T16:25:25.386Z,5.00
2022-11-27T16:27:57.978Z,5.10
2022-11-27T16:30:55.533Z,5.10
2022-11-27T16:33:26.669Z,5.10
2022-11-27T16:35:54.863Z,5.10
2022-11-27T16:38:23.887Z,5.10
2022-11-27T16:40:52.138Z,5.10
2022-11-27T16:43:20.131Z,5.10
2022-11-27T16:45:49.185Z,5.10
2022-11-27T16:48:18.788Z,5.10
2022-11-27T16:50:47.264Z,5.10
2022-11-27T16:53:15.361Z,5.00
2022-11-27T16:55:43.811Z,5.00
2022-11-27T16:58:12.032Z,5.00
2022-11-27T17:00:40.222Z,5.00
2022-11-27T17:03:08.854Z,5.00
2022-11-27T17:05:39.616Z,5.00
2022-11-27T17:08:08.415Z,5.00
2022-11-27T17:10:36.415Z,5.10
2022-11-27T17:13:04.461Z,5.10
2022-11-27T17:15:40.390Z,5.00
2022-11-27T17:18:11.915Z,5.00
2022-11-27T17:20:41.483Z,5.00
2022-11-27T17:23:09.501Z,5.00
2022-11-27T17:25:39.145Z,5.00
2022-11-27T17:28:07.294Z,5.00
2022-11-27T17:30:39.317Z,4.90
2022-11-27T17:33:07.726Z,4.90
2022-11-27T17:35:35.951Z,4.80
2022-11-27T17:38:05.551Z,4.80
2022-11-27T17:40:33.740Z,4.80
2022-11-27T17:43:02.162Z,4.80
2022-11-27T17:45:30.279Z,4.80
2022-11-27T17:48:00.133Z,4.70
2022-11-27T17:50:29.273Z,4.70
2022-11-27T17:52:57.345Z,4.70
2022-11-27T17:55:27.107Z,4.70
2022-11-27T17:57:55.885Z,4.60
2022-11-27T18:00:24.564Z,4.70
2022-11-27T18:02:52.672Z,4.70
2022-11-27T18:05:20.869Z,4.70
2022-11-27T18:07:49.744Z,4.70
2022-11-27T18:10:19.220Z,4.70
2022-11-27T18:12:48.824Z,4.80
2022-11-27T18:15:17.159Z,4.80
2022-11-27T18:20:39.063Z,4.70
2022-11-27T18:23:07.222Z,4.70
2022-11-27T18:25:35.342Z,4.70
2022-11-27T18:28:05.879Z,4.70
2022-11-27T18:30:35.755Z,4.80
2022-11-27T18:33:04.497Z,4.70
2022-11-27T18:35:32.520Z,4.80
2022-11-27T18:38:00.635Z,4.80
2022-11-27T18:40:28.890Z,4.80
2022-11-27T18:42:58.773Z,4.80
2022-11-27T18:45:33.249Z,4.80
2022-11-27T18:48:02.755Z,4.80
2022-11-27T18:50:30.889Z,4.80
2022-11-27T18:52:59.071Z,4.80
2022-11-27T18:55:27.212Z,4.80
2022-11-27T18:57:55.333Z,4.80
2022-11-27T19:00:23.872Z,4.90
2022-11-27T19:02:53.390Z,4.80
2022-11-27T19:05:21.578Z,4.80
2022-11-27T19:07:49.920Z,4.80
2022-11-27T19:10:21.429Z,4.80
2022-11-27T19:12:49.521Z,4.90
2022-11-27T19:15:18.699Z,4.90
2022-11-27T19:17:46.815Z,4.90
2022-11-27T19:20:16.385Z,4.90
2022-11-27T19:22:44.619Z,5.00
2022-11-27T19:25:12.734Z,4.90
2022-11-27T19:27:41.047Z,4.90
2022-11-27T19:30:10.096Z,5.00
2022-11-27T19:32:38.222Z,5.00
2022-11-27T19:35:09.081Z,5.00
2022-11-27T19:37:38.675Z,4.90
2022-11-27T19:40:08.391Z,5.00
2022-11-27T19:42:37.769Z,5.00
2022-11-27T19:45:07.218Z,5.00
2022-11-27T19:47:35.352Z,5.00
2022-11-27T19:50:03.564Z,5.00
2022-11-27T19:52:32.318Z,5.00
2022-11-27T19:55:01.820Z,5.00
2022-11-27T19:57:29.933Z,5.00
2022-11-27T19:59:58.261Z,5.00
2022-11-27T20:02:26.449Z,5.00
2022-11-27T20:04:55.291Z,5.00
2022-11-27T20:07:23.634Z,5.00
2022-11-27T20:09:52.197Z,5.00
2022-11-27T20:12:21.635Z,5.00
2022-11-27T20:14:51.725Z,5.00
2022-11-27T20:17:20.301Z,5.00
2022-11-27T20:19:48.421Z,5.00
2022-11-27T20:22:16.917Z,5.00
2022-11-27T20:25:11.260Z,5.00
2022-11-27T20:27:37.001Z,5.00
2022-11-27T20:30:06.921Z,5.00
2022-11-27T20:32:35.028Z,5.00
2022-11-27T20:35:04.571Z,5.00
2022-11-27T20:37:34.007Z,5.00
2022-11-27T20:40:02.160Z,5.00
2022-11-27T20:42:30.557Z,5.00
2022-11-27T20:45:04.514Z,4.90
2022-11-27T20:47:32.801Z,4.90
2022-11-27T20:50:02.123Z,4.90
2022-11-27T20:52:30.579Z,4.90
2022-11-27T20:55:00.152Z,4.80
2022-11-27T20:57:29.825Z,4.80
2022-11-27T20:59:58.086Z,4.70
2022-11-27T21:02:28.518Z,4.70
2022-11-27T21:04:58.597Z,4.60
2022-11-27T21:07:26.777Z,4.60
2022-11-27T21:09:55.634Z,4.50
2022-11-27T21:12:24.121Z,4.50
2022-11-27T21:14:52.247Z,4.40
2022-11-27T21:17:20.402Z,4.40
2022-11-27T21:19:51.201Z,4.30
2022-11-27T21:22:19.328Z,4.30
2022-11-27T21:24:50.404Z,4.20
2022-11-27T21:27:19.224Z,4.10
2022-11-27T21:29:47.467Z,3.90
2022-11-27T21:32:18.205Z,3.90
2022-11-27T21:34:47.510Z,3.80
2022-11-27T21:37:17.123Z,3.70
2022-11-27T21:39:45.217Z,3.70
2022-11-27T21:42:16.154Z,3.60
2022-11-27T21:44:44.436Z,3.60
2022-11-27T21:47:12.584Z,3.50
2022-11-27T21:49:41.416Z,3.50
2022-11-27T21:52:10.632Z,3.40
2022-11-27T21:54:40.903Z,3.40
2022-11-27T21:57:09.109Z,3.30
2022-11-27T21:59:37.438Z,3.40
2022-11-27T22:02:05.592Z,3.30
2022-11-27T22:04:33.671Z,3.40
2022-11-27T22:07:01.768Z,3.40
2022-11-27T22:09:33.250Z,3.50
2022-11-27T22:12:02.736Z,3.50
2022-11-27T22:14:31.041Z,3.60
2022-11-27T22:16:59.207Z,3.50
2022-11-27T22:19:27.502Z,3.50
2022-11-27T22:21:55.735Z,3.50
2022-11-27T22:24:25.312Z,3.40
2022-11-27T22:26:53.828Z,3.40
2022-11-27T22:29:23.348Z,3.30
2022-11-27T22:31:53.378Z,3.30
2022-11-27T22:34:21.904Z,3.20
2022-11-27T22:36:50.077Z,3.20
2022-11-27T22:39:18.229Z,3.20
2022-11-27T22:41:47.253Z,3.20
2022-11-27T22:44:17.469Z,3.20
2022-11-27T22:46:47.038Z,3.20
2022-11-27T22:49:18.388Z,3.20
2022-11-27T22:51:47.322Z,3.20
2022-11-27T22:54:17.978Z,3.20
2022-11-27T22:56:47.621Z,3.20
2022-11-27T22:59:33.718Z,3.20
2022-11-27T23:02:07.281Z,3.20
2022-11-27T23:04:37.639Z,3.20
2022-11-27T23:07:32.621Z,3.10
2022-11-27T23:10:00.720Z,3.10
2022-11-27T23:12:28.782Z,3.10
2022-11-27T23:14:56.798Z,3.10
2022-11-27T23:17:26.311Z,3.10
2022-11-27T23:19:54.294Z,3.10
2022-11-27T23:22:22.402Z,3.00
2022-11-27T23:24:50.500Z,3.00
2022-11-27T23:27:18.600Z,3.00
2022-11-27T23:29:46.911Z,3.00
2022-11-27T23:32:14.968Z,3.00
2022-11-27T23:34:44.609Z,3.00
2022-11-27T23:37:12.727Z,2.90
2022-11-27T23:39:40.793Z,2.90
2022-11-27T23:42:08.890Z,2.90
2022-11-27T23:44:37.310Z,2.80
2022-11-27T23:47:06.140Z,2.80
2022-11-27T23:49:34.242Z,2.80
2022-11-27T23:52:03.789Z,2.80
2022-11-27T23:54:31.976Z,2.80
2022-11-27T23:57:00.045Z,2.80
2022-11-27T23:59:29.092Z,2.80
